createdAt,value
2022-12-02T00:01:58.417Z,1.85
2022-12-02T00:04:28.940Z,1.86
2022-12-02T00:06:58.407Z,1.84
2022-12-02T00:09:32.581Z,1.84
2022-12-02T00:12:02.018Z,1.84
2022-12-02T00:14:30.478Z,1.85
2022-12-02T00:16:59.406Z,1.86
2022-12-02T00:19:26.022Z,1.85
2022-12-02T00:21:52.733Z,1.86
2022-12-02T00:24:19.935Z,1.86
2022-12-02T00:26:47.153Z,1.86
2022-12-02T00:29:13.702Z,1.87
2022-12-02T00:31:42.434Z,1.88
2022-12-02T00:34:09.022Z,1.88
2022-12-02T00:36:35.635Z,1.88
2022-12-02T00:39:04.607Z,1.91
2022-12-02T00:41:31.088Z,1.91
2022-12-02T00:44:16.446Z,1.92
2022-12-02T00:46:42.929Z,1.93
2022-12-02T00:49:14.972Z,1.93
2022-12-02T00:51:45.363Z,1.94
2022-12-02T00:54:12.986Z,1.93
2022-12-02T00:56:39.773Z,1.93
2022-12-02T00:59:08.272Z,1.94
2022-12-02T01:01:36.522Z,1.93
2022-12-02T01:04:03.553Z,1.93
2022-12-02T01:06:32.338Z,1.94
2022-12-02T01:09:03.442Z,1.93
2022-12-02T01:11:29.921Z,1.93
2022-12-02T01:13:56.544Z,1.93
2022-12-02T01:16:23.695Z,1.91
2022-12-02T01:18:53.737Z,1.90
2022-12-02T01:21:23.311Z,1.91
2022-12-02T01:23:50.442Z,1.94
2022-12-02T01:26:16.963Z,1.96
2022-12-02T01:28:52.091Z,1.95
2022-12-02T01:31:18.663Z,1.94
2022-12-02T01:33:45.303Z,1.95
2022-12-02T01:36:11.987Z,1.96
2022-12-02T01:38:38.524Z,1.95
2022-12-02T01:41:05.935Z,1.95
2022-12-02T01:43:34.611Z,1.94
2022-12-02T01:46:03.617Z,1.96
2022-12-02T01:48:30.569Z,1.95
2022-12-02T01:50:58.134Z,1.96
2022-12-02T01:53:24.922Z,1.96
2022-12-02T01:55:51.487Z,1.94
2022-12-02T01:58:22.643Z,1.96
2022-12-02T02:00:49.185Z,1.99
2022-12-02T02:03:15.669Z,1.99
2022-12-02T02:05:42.524Z,2.00
2022-12-02T02:08:12.725Z,1.98
2022-12-02T02:10:52.520Z,1.98
2022-12-02T02:13:23.134Z,1.97
2022-12-02T02:15:49.651Z,1.99
2022-12-02T02:18:21.145Z,1.99
2022-12-02T02:20:48.462Z,1.97
2022-12-02T02:23:14.864Z,1.99
2022-12-02T02:25:47.359Z,1.99
2022-12-02T02:28:14.183Z,1.98
2022-12-02T02:30:45.017Z,1.98
2022-12-02T02:33:16.252Z,2.00
2022-12-02T02:35:44.893Z,1.99
2022-12-02T02:38:14.826Z,1.97
2022-12-02T02:40:50.757Z,1.96
2022-12-02T02:43:21.051Z,1.97
2022-12-02T02:45:50.832Z,1.96
2022-12-02T02:48:19.185Z,1.95
2022-12-02T02:50:48.145Z,1.96
2022-12-02T02:53:17.208Z,1.97
2022-12-02T02:55:44.050Z,1.95
2022-12-02T02:58:14.436Z,1.95
2022-12-02T03:00:44.087Z,1.94
2022-12-02T03:03:13.756Z,1.96
2022-12-02T03:05:41.074Z,1.96
2022-12-02T03:08:09.215Z,1.94
2022-12-02T03:10:37.598Z,1.93
2022-12-02T03:13:04.429Z,1.94
2022-12-02T03:15:31.832Z,1.94
2022-12-02T03:18:00.146Z,1.91
2022-12-02T03:20:26.884Z,1.91
2022-12-02T03:22:53.676Z,1.90
2022-12-02T03:25:20.561Z,1.89
2022-12-02T03:27:47.166Z,1.89
2022-12-02T03:30:18.094Z,1.91
2022-12-02T03:32:45.892Z,1.91
2022-12-02T03:35:12.740Z,1.91
2022-12-02T03:37:39.487Z,1.89
2022-12-02T03:40:09.058Z,1.90
2022-12-02T03:42:35.946Z,1.89
2022-12-02T03:45:03.617Z,1.88
2022-12-02T03:47:32.157Z,1.88
2022-12-02T03:49:59.024Z,1.89
2022-12-02T03:52:25.760Z,1.91
2022-12-02T03:55:00.930Z,1.90
2022-12-02T03:57:27.907Z,1.91
2022-12-02T03:59:54.447Z,1.93
2022-12-02T04:02:22.752Z,1.95
2022-12-02T04:04:49.655Z,1.95
2022-12-02T04:07:16.719Z,1.94
2022-12-02T04:09:45.392Z,1.94
2022-12-02T04:12:11.850Z,1.94
2022-12-02T04:14:38.412Z,1.93
2022-12-02T04:17:08.470Z,1.96
2022-12-02T04:19:35.133Z,1.99
2022-12-02T04:22:02.013Z,2.01
2022-12-02T04:24:28.921Z,2.00
2022-12-02T04:26:56.356Z,2.00
2022-12-02T04:29:22.947Z,2.02
2022-12-02T04:31:51.246Z,2.01
2022-12-02T04:34:17.900Z,1.97
2022-12-02T04:36:44.359Z,1.96
2022-12-02T04:39:20.708Z,1.99
2022-12-02T04:41:48.523Z,1.97
2022-12-02T04:44:18.097Z,1.97
2022-12-02T04:46:45.312Z,1.97
2022-12-02T04:49:12.181Z,1.99
2022-12-02T04:51:38.650Z,2.00
2022-12-02T04:54:05.548Z,2.02
2022-12-02T04:56:32.369Z,1.99
2022-12-02T04:58:58.835Z,2.00
2022-12-02T05:01:27.168Z,1.97
2022-12-02T05:03:55.465Z,1.99
2022-12-02T05:06:21.971Z,1.96
2022-12-02T05:08:48.676Z,1.96
2022-12-02T05:11:15.130Z,1.96
2022-12-02T05:13:41.666Z,1.96
2022-12-02T05:16:10.416Z,1.93
2022-12-02T05:18:36.955Z,1.94
2022-12-02T05:21:03.629Z,1.95
2022-12-02T05:23:32.350Z,1.95
2022-12-02T05:25:58.855Z,1.93
2022-12-02T05:28:25.424Z,1.93
2022-12-02T05:31:02.146Z,1.92
2022-12-02T05:33:31.497Z,1.95
2022-12-02T05:35:57.984Z,1.96
2022-12-02T05:38:24.642Z,1.96
2022-12-02T05:40:57.250Z,1.97
2022-12-02T05:43:28.340Z,1.97
2022-12-02T05:45:59.133Z,1.97
2022-12-02T05:48:28.259Z,1.97
2022-12-02T05:50:56.638Z,1.97
2022-12-02T05:53:25.859Z,1.97
2022-12-02T05:55:53.928Z,1.98
2022-12-02T05:58:21.414Z,1.99
2022-12-02T06:00:56.740Z,2.05
2022-12-02T06:03:25.129Z,2.00
2022-12-02T06:05:56.170Z,2.00
2022-12-02T06:08:27.830Z,1.97
2022-12-02T06:10:59.306Z,1.96
2022-12-02T06:13:30.451Z,1.96
2022-12-02T06:15:58.398Z,1.95
2022-12-02T06:18:29.765Z,1.96
2022-12-02T06:21:01.305Z,2.00
2022-12-02T06:23:31.180Z,2.01
2022-12-02T06:25:59.011Z,1.99
2022-12-02T06:28:30.645Z,1.99
2022-12-02T06:31:00.128Z,1.99
2022-12-02T06:33:36.993Z,1.96
2022-12-02T06:36:12.278Z,1.95
2022-12-02T06:38:57.204Z,1.97
2022-12-02T06:41:27.025Z,2.00
2022-12-02T06:44:26.627Z,2.01
2022-12-02T06:46:53.125Z,2.01
2022-12-02T06:49:23.047Z,2.01
2022-12-02T06:52:04.278Z,2.02
2022-12-02T06:54:32.765Z,2.03
2022-12-02T06:57:01.969Z,2.01
2022-12-02T06:59:30.254Z,2.02
2022-12-02T07:02:07.905Z,2.03
2022-12-02T07:04:44.867Z,2.02
2022-12-02T07:07:17.233Z,1.99
2022-12-02T07:09:55.762Z,2.00
2022-12-02T07:12:36.289Z,2.00
2022-12-02T07:15:21.073Z,2.01
2022-12-02T07:17:47.565Z,2.01
2022-12-02T07:20:46.281Z,2.02
2022-12-02T07:23:23.322Z,2.03
2022-12-02T07:26:00.138Z,2.04
2022-12-02T07:31:32.274Z,2.04
2022-12-02T07:34:02.030Z,2.03
2022-12-02T07:36:28.567Z,2.03
2022-12-02T07:39:05.773Z,2.05
2022-12-02T07:41:36.776Z,2.05
2022-12-02T07:44:06.597Z,2.05
2022-12-02T07:46:36.600Z,2.09
2022-12-02T07:49:03.270Z,2.10
2022-12-02T07:54:20.446Z,2.14
2022-12-02T07:56:46.931Z,2.13
2022-12-02T07:59:16.817Z,2.14
2022-12-02T08:01:47.401Z,2.14
2022-12-02T08:04:13.953Z,2.16
2022-12-02T08:06:40.656Z,2.17
2022-12-02T08:09:08.610Z,2.18
2022-12-02T08:11:35.132Z,2.20
2022-12-02T08:14:01.988Z,2.21
2022-12-02T08:16:30.422Z,2.24
2022-12-02T08:18:56.992Z,2.27
2022-12-02T08:21:23.678Z,2.29
2022-12-02T08:23:50.397Z,2.30
2022-12-02T08:26:18.820Z,2.30
2022-12-02T08:28:47.269Z,2.32
2022-12-02T08:31:17.889Z,2.33
2022-12-02T08:33:44.433Z,2.33
2022-12-02T08:36:10.958Z,2.33
2022-12-02T08:38:52.337Z,2.33
2022-12-02T08:41:19.163Z,2.33
2022-12-02T08:43:45.716Z,2.35
2022-12-02T08:46:12.920Z,2.36
2022-12-02T08:48:39.555Z,2.39
2022-12-02T08:51:09.522Z,2.41
2022-12-02T08:53:36.218Z,2.43
2022-12-02T08:56:02.720Z,2.45
2022-12-02T08:58:32.360Z,2.48
2022-12-02T09:00:59.018Z,2.53
2022-12-02T09:03:27.760Z,2.56
2022-12-02T09:05:54.528Z,2.60
2022-12-02T09:08:29.481Z,2.61
2022-12-02T09:10:56.148Z,2.65
2022-12-02T09:13:26.049Z,2.70
2022-12-02T09:16:01.257Z,2.70
2022-12-02T09:18:27.891Z,2.71
2022-12-02T09:20:54.347Z,2.75
2022-12-02T09:23:21.067Z,2.77
2022-12-02T09:25:47.594Z,2.81
2022-12-02T09:28:14.082Z,2.87
2022-12-02T09:30:40.888Z,2.94
2022-12-02T09:33:07.456Z,2.98
2022-12-02T09:35:33.972Z,3.01
2022-12-02T09:38:03.570Z,3.05
2022-12-02T09:40:32.678Z,3.10
2022-12-02T09:43:00.002Z,3.12
2022-12-02T09:45:33.132Z,3.22
2022-12-02T09:48:00.061Z,3.22
2022-12-02T09:50:26.836Z,3.24
2022-12-02T09:53:02.424Z,3.32
2022-12-02T09:55:29.129Z,3.26
2022-12-02T09:57:56.829Z,3.21
2022-12-02T10:00:25.266Z,3.27
2022-12-02T10:02:54.324Z,3.39
2022-12-02T10:05:29.593Z,3.56
2022-12-02T10:07:58.438Z,3.45
2022-12-02T10:10:27.721Z,3.49
2022-12-02T10:13:07.334Z,3.48
2022-12-02T10:15:34.513Z,3.53
2022-12-02T10:18:09.320Z,3.51
2022-12-02T10:20:36.073Z,3.46
2022-12-02T10:23:16.263Z,3.54
2022-12-02T10:25:55.595Z,3.58
2022-12-02T10:28:33.661Z,3.56
2022-12-02T10:31:35.847Z,3.65
2022-12-02T10:34:06.909Z,3.69
2022-12-02T10:36:39.737Z,3.72
2022-12-02T10:39:22.054Z,3.76
2022-12-02T10:42:13.711Z,3.87
2022-12-02T10:44:42.927Z,3.94
2022-12-02T10:47:26.618Z,4.01
2022-12-02T10:49:59.420Z,4.08
2022-12-02T10:52:44.629Z,4.07
2022-12-02T10:55:14.877Z,4.06
2022-12-02T10:57:42.950Z,4.08
2022-12-02T11:00:19.562Z,4.08
2022-12-02T11:02:57.795Z,4.08
2022-12-02T11:05:31.564Z,4.16
2022-12-02T11:08:05.995Z,4.22
2022-12-02T11:10:44.661Z,4.20
2022-12-02T11:13:13.925Z,4.16
2022-12-02T11:15:49.242Z,4.17
2022-12-02T11:18:30.121Z,4.22
2022-12-02T11:21:02.765Z,4.28
2022-12-02T11:23:31.276Z,4.33
2022-12-02T11:26:07.557Z,4.34
2022-12-02T11:28:37.147Z,4.30
2022-12-02T11:31:09.866Z,4.26
2022-12-02T11:34:05.768Z,4.33
2022-12-02T11:36:37.590Z,4.29
2022-12-02T11:39:07.444Z,4.29
2022-12-02T11:41:49.331Z,4.36
2022-12-02T11:44:28.532Z,4.37
2022-12-02T11:47:01.489Z,4.34
2022-12-02T11:49:37.733Z,4.29
2022-12-02T11:52:10.329Z,4.22
2022-12-02T11:54:39.403Z,4.19
2022-12-02T11:57:07.177Z,4.15
2022-12-02T11:59:36.720Z,4.13
2022-12-02T12:02:18.294Z,4.13
2022-12-02T12:04:45.534Z,4.16
2022-12-02T12:10:03.300Z,4.21
2022-12-02T12:12:29.912Z,4.13
2022-12-02T12:14:59.396Z,4.10
2022-12-02T12:17:46.561Z,4.10
2022-12-02T12:20:16.178Z,4.15
2022-12-02T12:22:42.669Z,4.13
2022-12-02T12:25:33.949Z,4.07
2022-12-02T12:28:00.901Z,4.10
2022-12-02T12:30:27.672Z,4.06
2022-12-02T12:32:56.443Z,4.07
2022-12-02T12:35:22.909Z,4.04
2022-12-02T12:37:49.381Z,4.05
2022-12-02T12:40:17.905Z,4.05
2022-12-02T12:42:44.374Z,4.12
2022-12-02T12:45:11.181Z,4.14
2022-12-02T12:47:39.494Z,4.11
2022-12-02T12:50:06.529Z,4.17
2022-12-02T12:52:33.053Z,4.15
2022-12-02T12:55:01.409Z,4.23
2022-12-02T12:57:27.947Z,4.30
2022-12-02T12:59:54.996Z,4.29
2022-12-02T13:02:21.686Z,4.33
2022-12-02T13:04:48.234Z,4.39
2022-12-02T13:07:14.718Z,4.43
2022-12-02T13:09:43.460Z,4.44
2022-12-02T13:12:13.799Z,4.46
2022-12-02T13:14:41.265Z,4.52
2022-12-02T13:17:09.759Z,4.55
2022-12-02T13:19:36.310Z,4.54
2022-12-02T13:22:02.841Z,4.48
2022-12-02T13:24:42.779Z,4.47
2022-12-02T13:27:09.712Z,4.40
2022-12-02T13:29:36.255Z,4.40
2022-12-02T13:32:02.858Z,4.41
2022-12-02T13:34:29.372Z,4.41
2022-12-02T13:36:56.156Z,4.38
2022-12-02T13:39:24.471Z,4.35
2022-12-02T13:41:52.635Z,4.27
2022-12-02T13:44:19.125Z,4.27
2022-12-02T13:46:47.476Z,4.24
2022-12-02T13:49:13.978Z,4.28
2022-12-02T13:51:40.461Z,4.25
2022-12-02T13:54:14.306Z,4.27
2022-12-02T13:56:40.875Z,4.27
2022-12-02T13:59:07.333Z,4.34
2022-12-02T14:01:35.599Z,4.35
2022-12-02T14:04:02.468Z,4.43
2022-12-02T14:06:28.978Z,4.51
2022-12-02T14:08:57.142Z,4.50
2022-12-02T14:11:23.743Z,4.45
2022-12-02T14:13:51.206Z,4.47
2022-12-02T14:16:19.699Z,4.49
2022-12-02T14:18:46.211Z,4.53
2022-12-02T14:21:12.740Z,4.56
2022-12-02T14:23:39.378Z,4.56
2022-12-02T14:26:06.030Z,4.54
2022-12-02T14:28:32.569Z,4.45
2022-12-02T14:31:01.386Z,4.41
2022-12-02T14:33:47.860Z,4.43
2022-12-02T14:36:19.044Z,4.48
2022-12-02T14:38:45.593Z,4.49
2022-12-02T14:41:12.154Z,4.52
2022-12-02T14:43:38.941Z,4.45
2022-12-02T14:46:07.529Z,4.43
2022-12-02T14:48:34.103Z,4.39
2022-12-02T14:51:02.405Z,4.41
2022-12-02T14:53:29.060Z,4.44
2022-12-02T14:55:55.733Z,4.45
2022-12-02T14:58:32.359Z,4.39
2022-12-02T15:01:01.949Z,4.31
2022-12-02T15:03:28.452Z,4.30
2022-12-02T15:06:01.201Z,4.27
2022-12-02T15:08:27.857Z,4.28
2022-12-02T15:10:57.885Z,4.24
2022-12-02T15:13:24.447Z,4.21
2022-12-02T15:15:56.973Z,4.19
2022-12-02T15:18:27.818Z,4.16
2022-12-02T15:20:56.550Z,4.12
2022-12-02T15:23:23.425Z,4.10
2022-12-02T15:25:49.963Z,4.08
2022-12-02T15:28:18.634Z,4.09
2022-12-02T15:30:45.109Z,3.99
2022-12-02T15:33:11.753Z,3.91
2022-12-02T15:35:49.574Z,3.87
2022-12-02T15:38:17.918Z,3.83
2022-12-02T15:40:44.557Z,3.77
2022-12-02T15:43:11.250Z,3.73
2022-12-02T15:45:37.846Z,3.69
2022-12-02T15:48:06.433Z,3.63
2022-12-02T15:50:33.061Z,3.60
2022-12-02T15:52:59.748Z,3.58
2022-12-02T15:55:26.284Z,3.54
2022-12-02T15:57:55.094Z,3.51
2022-12-02T16:00:24.137Z,3.47
2022-12-02T16:02:55.940Z,3.43
2022-12-02T16:05:29.919Z,3.39
2022-12-02T16:07:58.502Z,3.35
2022-12-02T16:10:25.312Z,3.34
2022-12-02T16:12:51.800Z,3.32
2022-12-02T16:15:18.465Z,3.31
2022-12-02T16:17:45.002Z,3.29
2022-12-02T16:20:12.207Z,3.25
2022-12-02T16:22:38.710Z,3.21
2022-12-02T16:25:06.051Z,3.19
2022-12-02T16:27:32.561Z,3.16
2022-12-02T16:30:00.892Z,3.13
2022-12-02T16:32:27.365Z,3.09
2022-12-02T16:34:54.178Z,3.07
2022-12-02T16:37:26.904Z,3.05
2022-12-02T16:39:53.429Z,3.04
2022-12-02T16:42:20.864Z,3.01
2022-12-02T16:44:55.454Z,2.99
2022-12-02T16:47:23.396Z,2.97
2022-12-02T16:49:50.160Z,2.96
2022-12-02T16:52:16.824Z,2.93
2022-12-02T16:54:43.298Z,2.91
2022-12-02T16:57:09.837Z,2.86
2022-12-02T16:59:38.553Z,2.84
2022-12-02T17:02:05.511Z,2.81
2022-12-02T17:04:32.257Z,2.79
2022-12-02T17:06:58.922Z,2.76
2022-12-02T17:09:25.421Z,2.73
2022-12-02T17:11:51.904Z,2.71
2022-12-02T17:14:22.335Z,2.68
2022-12-02T17:16:48.946Z,2.64
2022-12-02T17:19:15.417Z,2.60
2022-12-02T17:21:41.930Z,2.57
2022-12-02T17:24:08.615Z,2.54
2022-12-02T17:26:35.097Z,2.48
2022-12-02T17:29:13.958Z,2.41
2022-12-02T17:31:43.580Z,2.37
2022-12-02T17:34:11.115Z,2.34
2022-12-02T17:36:37.580Z,2.28
2022-12-02T17:39:04.243Z,2.20
2022-12-02T17:41:33.038Z,2.11
2022-12-02T17:44:01.525Z,2.03
2022-12-02T17:46:28.178Z,1.97
2022-12-02T17:48:54.704Z,1.95
2022-12-02T17:51:21.390Z,1.91
2022-12-02T17:53:48.145Z,1.85
2022-12-02T17:56:14.685Z,1.81
2022-12-02T17:58:45.485Z,1.82
2022-12-02T18:01:12.579Z,1.78
2022-12-02T18:03:40.596Z,1.83
2022-12-02T18:06:07.746Z,1.83
2022-12-02T18:08:34.708Z,1.85
2022-12-02T18:11:01.245Z,1.83
2022-12-02T18:13:28.294Z,1.79
2022-12-02T18:15:54.810Z,1.75
2022-12-02T18:18:24.833Z,1.64
2022-12-02T18:20:54.881Z,1.61
2022-12-02T18:23:26.244Z,1.63
2022-12-02T18:25:54.224Z,1.60
2022-12-02T18:28:27.179Z,1.63
2022-12-02T18:30:53.839Z,1.60
2022-12-02T18:33:20.455Z,1.61
2022-12-02T18:35:46.929Z,1.61
2022-12-02T18:38:15.300Z,1.67
2022-12-02T18:40:41.848Z,1.73
2022-12-02T18:43:10.122Z,1.74
2022-12-02T18:45:36.633Z,1.79
2022-12-02T18:48:03.221Z,1.86
2022-12-02T18:50:34.935Z,1.97
2022-12-02T18:53:01.566Z,2.02
2022-12-02T18:55:28.185Z,2.08
2022-12-02T18:58:05.446Z,2.13
2022-12-02T19:00:34.646Z,2.18
2022-12-02T19:03:01.843Z,2.21
2022-12-02T19:05:30.208Z,2.22
2022-12-02T19:07:56.760Z,2.24
2022-12-02T19:10:24.346Z,2.28
2022-12-02T19:12:58.535Z,2.33
2022-12-02T19:15:25.225Z,2.35
2022-12-02T19:17:52.223Z,2.32
2022-12-02T19:23:01.205Z,2.29
2022-12-02T19:25:29.243Z,2.27
2022-12-02T19:27:57.386Z,2.24
2022-12-02T19:30:24.733Z,2.20
2022-12-02T19:32:53.459Z,2.18
2022-12-02T19:35:20.256Z,2.17
2022-12-02T19:37:46.775Z,2.18
2022-12-02T19:40:14.235Z,2.18
2022-12-02T19:42:40.813Z,2.17
2022-12-02T19:45:08.084Z,2.17
2022-12-02T19:47:45.255Z,2.16
2022-12-02T19:50:14.612Z,2.17
2022-12-02T19:52:41.733Z,2.16
2022-12-02T19:55:11.920Z,2.17
2022-12-02T19:57:40.606Z,2.17
2022-12-02T20:00:11.521Z,2.15
2022-12-02T20:02:40.401Z,2.16
2022-12-02T20:05:08.638Z,2.15
2022-12-02T20:07:35.268Z,2.16
2022-12-02T20:10:03.520Z,2.16
2022-12-02T20:12:30.367Z,2.13
2022-12-02T20:14:56.840Z,2.12
2022-12-02T20:17:23.557Z,2.09
2022-12-02T20:19:50.025Z,2.06
2022-12-02T20:22:16.500Z,2.02
2022-12-02T20:24:46.287Z,2.03
2022-12-02T20:27:12.857Z,2.02
2022-12-02T20:29:39.336Z,1.98
2022-12-02T20:32:07.610Z,1.95
2022-12-02T20:34:34.816Z,1.98
2022-12-02T20:37:02.915Z,1.96
2022-12-02T20:39:35.526Z,1.94
2022-12-02T20:42:02.157Z,1.92
2022-12-02T20:44:29.357Z,1.90
2022-12-02T20:46:57.753Z,1.88
2022-12-02T20:49:24.290Z,1.85
2022-12-02T20:51:54.455Z,1.83
2022-12-02T20:54:22.681Z,1.81
2022-12-02T20:56:49.176Z,1.81
2022-12-02T20:59:15.704Z,1.80
2022-12-02T21:01:46.927Z,1.79
2022-12-02T21:04:13.533Z,1.78
2022-12-02T21:06:40.077Z,1.75
2022-12-02T21:09:06.706Z,1.71
2022-12-02T21:11:35.773Z,1.67
2022-12-02T21:14:02.295Z,1.63
2022-12-02T21:16:35.325Z,1.57
2022-12-02T21:19:01.837Z,1.52
2022-12-02T21:21:28.517Z,1.45
2022-12-02T21:24:03.259Z,1.42
2022-12-02T21:26:30.716Z,1.36
2022-12-02T21:28:57.241Z,1.33
2022-12-02T21:31:25.643Z,1.26
2022-12-02T21:33:52.199Z,1.26
2022-12-02T21:36:18.717Z,1.19
2022-12-02T21:38:47.482Z,1.17
2022-12-02T21:41:14.012Z,1.14
2022-12-02T21:43:40.539Z,1.02
2022-12-02T21:46:07.423Z,0.93
2022-12-02T21:48:34.011Z,0.90
2022-12-02T21:51:00.474Z,0.83
2022-12-02T21:53:28.689Z,0.78
2022-12-02T21:55:55.198Z,0.78
2022-12-02T21:58:21.727Z,0.73
2022-12-02T22:01:10.507Z,0.64
2022-12-02T22:03:37.303Z,0.49
2022-12-02T22:06:03.907Z,0.45
2022-12-02T22:08:30.501Z,0.39
2022-12-02T22:10:56.969Z,0.35
2022-12-02T22:13:23.708Z,0.35
2022-12-02T22:15:52.419Z,0.29
2022-12-02T22:18:18.946Z,0.15
2022-12-02T22:20:45.421Z,0.10
2022-12-02T22:23:13.669Z,0.01
2022-12-02T22:25:42.208Z,0.02
2022-12-02T22:28:10.186Z,-0.11
2022-12-02T22:30:36.808Z,-0.11
2022-12-02T22:33:03.412Z,-0.13
2022-12-02T22:35:29.870Z,-0.25
2022-12-02T22:38:05.090Z,-0.29
2022-12-02T22:40:31.575Z,-0.33
2022-12-02T22:42:58.074Z,-0.36
2022-12-02T22:45:26.348Z,-0.41
2022-12-02T22:47:52.948Z,-0.52
2022-12-02T22:50:19.792Z,-0.54
2022-12-02T22:52:46.488Z,-0.60
2022-12-02T22:55:13.131Z,-0.64
2022-12-02T22:57:39.621Z,-0.66
2022-12-02T23:00:10.583Z,-0.64
2022-12-02T23:02:37.156Z,-0.67
2022-12-02T23:05:03.916Z,-0.72
2022-12-02T23:07:30.679Z,-0.74
2022-12-02T23:09:57.197Z,-0.73
2022-12-02T23:12:25.957Z,-0.71
2022-12-02T23:15:00.855Z,-0.72
2022-12-02T23:17:36.317Z,-0.81
2022-12-02T23:20:04.620Z,-0.90
2022-12-02T23:22:35.732Z,-0.94
2022-12-02T23:25:02.660Z,-0.99
2022-12-02T23:27:31.386Z,-0.99
2022-12-02T23:29:57.906Z,-1.00
2022-12-02T23:32:24.382Z,-0.98
2022-12-02T23:34:56.179Z,-1.00
2022-12-02T23:37:22.670Z,-1.13
2022-12-02T23:39:49.207Z,-1.18
2022-12-02T23:42:17.548Z,-1.12
2022-12-02T23:44:44.027Z,-1.06
2022-12-02T23:47:11.295Z,-1.09
2022-12-02T23:49:37.874Z,-1.04
2022-12-02T23:52:04.724Z,-1.11
2022-12-02T23:54:35.228Z,-1.20
2022-12-02T23:57:02.001Z,-1.28
2022-12-02T23:59:28.486Z,-1.34
